sensor_id;sensor_type;location;lat;lon;timestamp;P1;durP1;ratioP1;P2;durP2;ratioP2
7773;SDS011;3931;42.260;23.116;2022-12-15T00:02:29;21.57;;;13.40;;
7773;SDS011;3931;42.260;23.116;2022-12-15T00:05:13;22.90;;;14.93;;
7773;SDS011;3931;42.260;23.116;2022-12-15T00:08:04;22.90;;;14.50;;
7773;SDS011;3931;42.260;23.116;2022-12-15T00:10:48;17.47;;;12.80;;
7773;SDS011;3931;42.260;23.116;2022-12-15T00:13:32;23.87;;;14.93;;
7773;SDS011;3931;42.260;23.116;2022-12-15T00:16:16;24.97;;;15.57;;
7773;SDS011;3931;42.260;23.116;2022-12-15T00:19:01;23.47;;;14.97;;
7773;SDS011;3931;42.260;23.116;2022-12-15T00:21:45;20.57;;;14.30;;
7773;SDS011;3931;42.260;23.116;2022-12-15T00:24:29;23.50;;;14.30;;
7773;SDS011;3931;42.260;23.116;2022-12-15T00:27:13;27.97;;;14.13;;
7773;SDS011;3931;42.260;23.116;2022-12-15T00:29:57;18.53;;;12.63;;
7773;SDS011;3931;42.260;23.116;2022-12-15T00:32:41;23.47;;;14.60;;
7773;SDS011;3931;42.260;23.116;2022-12-15T00:35:26;21.40;;;14.30;;
7773;SDS011;3931;42.260;23.116;2022-12-15T00:38:10;23.53;;;15.00;;
7773;SDS011;3931;42.260;23.116;2022-12-15T00:40:58;24.10;;;14.40;;
7773;SDS011;3931;42.260;23.116;2022-12-15T00:43:24;20.73;;;14.03;;
7773;SDS011;3931;42.260;23.116;2022-12-15T00:45:51;18.27;;;12.73;;
7773;SDS011;3931;42.260;23.116;2022-12-15T00:48:37;22.80;;;12.23;;
7773;SDS011;3931;42.260;23.116;2022-12-15T00:51:04;19.60;;;13.67;;
7773;SDS011;3931;42.260;23.116;2022-12-15T00:53:30;21.70;;;13.97;;
7773;SDS011;3931;42.260;23.116;2022-12-15T00:56:15;22.73;;;13.93;;
7773;SDS011;3931;42.260;23.116;2022-12-15T00:58:59;23.63;;;14.20;;
7773;SDS011;3931;42.260;23.116;2022-12-15T01:01:43;20.00;;;13.20;;
7773;SDS011;3931;42.260;23.116;2022-12-15T01:04:28;19.17;;;13.33;;
7773;SDS011;3931;42.260;23.116;2022-12-15T01:07:13;21.67;;;14.07;;
7773;SDS011;3931;42.260;23.116;2022-12-15T01:09:57;20.00;;;13.43;;
7773;SDS011;3931;42.260;23.116;2022-12-15T01:12:42;18.47;;;13.17;;
7773;SDS011;3931;42.260;23.116;2022-12-15T01:15:27;18.97;;;12.67;;
7773;SDS011;3931;42.260;23.116;2022-12-15T01:18:11;21.67;;;14.17;;
7773;SDS011;3931;42.260;23.116;2022-12-15T01:20:56;19.83;;;13.40;;
7773;SDS011;3931;42.260;23.116;2022-12-15T01:23:23;16.87;;;11.70;;
7773;SDS011;3931;42.260;23.116;2022-12-15T01:25:50;20.40;;;13.90;;
7773;SDS011;3931;42.260;23.116;2022-12-15T01:28:17;22.00;;;14.10;;
7773;SDS011;3931;42.260;23.116;2022-12-15T01:30:43;16.40;;;12.07;;
7773;SDS011;3931;42.260;23.116;2022-12-15T01:33:10;17.50;;;11.97;;
7773;SDS011;3931;42.260;23.116;2022-12-15T01:35:36;18.63;;;12.80;;
7773;SDS011;3931;42.260;23.116;2022-12-15T01:38:03;16.53;;;11.03;;
7773;SDS011;3931;42.260;23.116;2022-12-15T01:40:30;15.70;;;10.50;;
7773;SDS011;3931;42.260;23.116;2022-12-15T01:43:11;16.27;;;11.57;;
7773;SDS011;3931;42.260;23.116;2022-12-15T01:45:46;14.47;;;10.90;;
7773;SDS011;3931;42.260;23.116;2022-12-15T01:48:17;17.60;;;11.67;;
7773;SDS011;3931;42.260;23.116;2022-12-15T01:50:49;19.83;;;12.60;;
7773;SDS011;3931;42.260;23.116;2022-12-15T01:53:20;18.30;;;11.97;;
7773;SDS011;3931;42.260;23.116;2022-12-15T01:55:47;15.13;;;10.40;;
7773;SDS011;3931;42.260;23.116;2022-12-15T01:58:14;18.57;;;11.57;;
7773;SDS011;3931;42.260;23.116;2022-12-15T02:00:42;16.23;;;11.77;;
7773;SDS011;3931;42.260;23.116;2022-12-15T02:03:08;13.57;;;9.30;;
7773;SDS011;3931;42.260;23.116;2022-12-15T02:05:36;12.63;;;9.87;;
7773;SDS011;3931;42.260;23.116;2022-12-15T02:08:04;16.00;;;11.40;;
7773;SDS011;3931;42.260;23.116;2022-12-15T02:10:35;17.87;;;10.50;;
7773;SDS011;3931;42.260;23.116;2022-12-15T02:13:16;16.20;;;11.20;;
7773;SDS011;3931;42.260;23.116;2022-12-15T02:15:54;56.43;;;18.40;;
7773;SDS011;3931;42.260;23.116;2022-12-15T02:18:27;46.37;;;17.93;;
7773;SDS011;3931;42.260;23.116;2022-12-15T02:21:00;28.20;;;13.80;;
7773;SDS011;3931;42.260;23.116;2022-12-15T02:23:56;18.03;;;11.33;;
7773;SDS011;3931;42.260;23.116;2022-12-15T02:26:44;17.40;;;10.43;;
7773;SDS011;3931;42.260;23.116;2022-12-15T02:32:47;13.47;;;8.87;;
7773;SDS011;3931;42.260;23.116;2022-12-15T02:35:22;16.17;;;10.27;;
7773;SDS011;3931;42.260;23.116;2022-12-15T02:37:55;20.23;;;10.90;;
7773;SDS011;3931;42.260;23.116;2022-12-15T02:40:21;15.37;;;9.07;;
7773;SDS011;3931;42.260;23.116;2022-12-15T02:42:48;11.70;;;7.80;;
7773;SDS011;3931;42.260;23.116;2022-12-15T02:45:17;15.07;;;9.70;;
7773;SDS011;3931;42.260;23.116;2022-12-15T02:47:50;12.00;;;8.93;;
7773;SDS011;3931;42.260;23.116;2022-12-15T02:50:41;11.60;;;8.30;;
7773;SDS011;3931;42.260;23.116;2022-12-15T02:53:18;14.90;;;8.80;;
7773;SDS011;3931;42.260;23.116;2022-12-15T02:56:03;12.90;;;9.03;;
7773;SDS011;3931;42.260;23.116;2022-12-15T02:58:38;13.50;;;8.97;;
7773;SDS011;3931;42.260;23.116;2022-12-15T03:01:14;12.77;;;9.30;;
7773;SDS011;3931;42.260;23.116;2022-12-15T03:03:51;14.17;;;9.57;;
7773;SDS011;3931;42.260;23.116;2022-12-15T03:06:18;12.87;;;9.30;;
7773;SDS011;3931;42.260;23.116;2022-12-15T03:08:44;13.10;;;8.90;;
7773;SDS011;3931;42.260;23.116;2022-12-15T03:11:10;13.60;;;8.83;;
7773;SDS011;3931;42.260;23.116;2022-12-15T03:13:36;15.43;;;9.87;;
7773;SDS011;3931;42.260;23.116;2022-12-15T03:16:03;13.00;;;9.50;;
7773;SDS011;3931;42.260;23.116;2022-12-15T03:18:29;14.20;;;9.47;;
7773;SDS011;3931;42.260;23.116;2022-12-15T03:20:55;13.50;;;9.20;;
7773;SDS011;3931;42.260;23.116;2022-12-15T03:23:22;14.33;;;9.23;;
7773;SDS011;3931;42.260;23.116;2022-12-15T03:25:48;16.50;;;9.77;;
7773;SDS011;3931;42.260;23.116;2022-12-15T03:28:14;14.03;;;10.47;;
7773;SDS011;3931;42.260;23.116;2022-12-15T03:30:40;13.10;;;9.77;;
7773;SDS011;3931;42.260;23.116;2022-12-15T03:33:06;20.67;;;13.43;;
7773;SDS011;3931;42.260;23.116;2022-12-15T03:35:34;16.37;;;11.80;;
7773;SDS011;3931;42.260;23.116;2022-12-15T03:38:00;14.30;;;9.57;;
7773;SDS011;3931;42.260;23.116;2022-12-15T03:40:26;17.40;;;11.87;;
7773;SDS011;3931;42.260;23.116;2022-12-15T03:42:52;17.60;;;11.87;;
7773;SDS011;3931;42.260;23.116;2022-12-15T03:45:19;17.40;;;11.60;;
7773;SDS011;3931;42.260;23.116;2022-12-15T03:47:46;17.27;;;11.10;;
7773;SDS011;3931;42.260;23.116;2022-12-15T03:50:14;15.27;;;11.07;;
7773;SDS011;3931;42.260;23.116;2022-12-15T03:52:42;16.83;;;11.20;;
7773;SDS011;3931;42.260;23.116;2022-12-15T03:55:09;18.90;;;12.30;;
7773;SDS011;3931;42.260;23.116;2022-12-15T03:57:35;20.03;;;14.23;;
7773;SDS011;3931;42.260;23.116;2022-12-15T04:00:02;16.17;;;11.87;;
7773;SDS011;3931;42.260;23.116;2022-12-15T04:02:29;14.30;;;10.33;;
7773;SDS011;3931;42.260;23.116;2022-12-15T04:04:55;17.40;;;10.80;;
7773;SDS011;3931;42.260;23.116;2022-12-15T04:07:21;15.40;;;10.83;;
7773;SDS011;3931;42.260;23.116;2022-12-15T04:09:48;19.03;;;12.10;;
7773;SDS011;3931;42.260;23.116;2022-12-15T04:12:14;17.00;;;11.70;;
7773;SDS011;3931;42.260;23.116;2022-12-15T04:14:40;21.07;;;13.47;;
7773;SDS011;3931;42.260;23.116;2022-12-15T04:17:07;19.17;;;13.90;;
7773;SDS011;3931;42.260;23.116;2022-12-15T04:19:33;19.03;;;13.37;;
7773;SDS011;3931;42.260;23.116;2022-12-15T04:22:18;23.17;;;15.00;;
7773;SDS011;3931;42.260;23.116;2022-12-15T04:24:44;50.43;;;23.80;;
7773;SDS011;3931;42.260;23.116;2022-12-15T04:27:28;34.13;;;18.30;;
7773;SDS011;3931;42.260;23.116;2022-12-15T04:30:12;31.53;;;16.60;;
7773;SDS011;3931;42.260;23.116;2022-12-15T04:32:57;29.43;;;15.87;;
7773;SDS011;3931;42.260;23.116;2022-12-15T04:35:42;24.33;;;12.67;;
7773;SDS011;3931;42.260;23.116;2022-12-15T04:38:27;19.93;;;13.00;;
7773;SDS011;3931;42.260;23.116;2022-12-15T04:41:11;21.30;;;12.43;;
7773;SDS011;3931;42.260;23.116;2022-12-15T04:43:56;18.70;;;12.20;;
7773;SDS011;3931;42.260;23.116;2022-12-15T04:46:40;20.33;;;13.07;;
7773;SDS011;3931;42.260;23.116;2022-12-15T04:49:24;19.73;;;12.13;;
7773;SDS011;3931;42.260;23.116;2022-12-15T04:52:08;21.97;;;14.00;;
7773;SDS011;3931;42.260;23.116;2022-12-15T04:54:52;21.00;;;12.77;;
7773;SDS011;3931;42.260;23.116;2022-12-15T04:57:36;20.73;;;12.23;;
7773;SDS011;3931;42.260;23.116;2022-12-15T05:00:20;19.23;;;11.53;;
7773;SDS011;3931;42.260;23.116;2022-12-15T05:03:05;18.90;;;11.80;;
7773;SDS011;3931;42.260;23.116;2022-12-15T05:05:50;23.47;;;12.00;;
7773;SDS011;3931;42.260;23.116;2022-12-15T05:08:34;18.83;;;12.30;;
7773;SDS011;3931;42.260;23.116;2022-12-15T05:11:18;24.73;;;16.83;;
7773;SDS011;3931;42.260;23.116;2022-12-15T05:14:02;24.80;;;16.30;;
7773;SDS011;3931;42.260;23.116;2022-12-15T05:16:47;22.20;;;15.67;;
7773;SDS011;3931;42.260;23.116;2022-12-15T05:19:31;24.27;;;16.53;;
7773;SDS011;3931;42.260;23.116;2022-12-15T05:22:15;35.13;;;19.87;;
7773;SDS011;3931;42.260;23.116;2022-12-15T05:24:59;35.47;;;20.10;;
7773;SDS011;3931;42.260;23.116;2022-12-15T05:27:43;36.27;;;20.77;;
7773;SDS011;3931;42.260;23.116;2022-12-15T05:30:27;33.90;;;17.60;;
7773;SDS011;3931;42.260;23.116;2022-12-15T05:33:12;33.40;;;19.13;;
7773;SDS011;3931;42.260;23.116;2022-12-15T05:35:38;36.43;;;19.50;;
7773;SDS011;3931;42.260;23.116;2022-12-15T05:38:04;38.87;;;22.00;;
7773;SDS011;3931;42.260;23.116;2022-12-15T05:40:30;38.70;;;20.90;;
7773;SDS011;3931;42.260;23.116;2022-12-15T05:42:57;37.97;;;18.50;;
7773;SDS011;3931;42.260;23.116;2022-12-15T05:45:23;21.93;;;13.73;;
7773;SDS011;3931;42.260;23.116;2022-12-15T05:47:50;23.30;;;14.80;;
7773;SDS011;3931;42.260;23.116;2022-12-15T05:50:17;27.33;;;18.30;;
7773;SDS011;3931;42.260;23.116;2022-12-15T05:52:43;29.10;;;18.73;;
7773;SDS011;3931;42.260;23.116;2022-12-15T05:55:09;38.27;;;21.10;;
7773;SDS011;3931;42.260;23.116;2022-12-15T05:57:35;40.53;;;26.73;;
7773;SDS011;3931;42.260;23.116;2022-12-15T06:00:01;41.63;;;26.83;;
7773;SDS011;3931;42.260;23.116;2022-12-15T06:02:28;57.50;;;32.43;;
7773;SDS011;3931;42.260;23.116;2022-12-15T06:04:54;61.53;;;38.50;;
7773;SDS011;3931;42.260;23.116;2022-12-15T06:07:20;57.23;;;35.40;;
7773;SDS011;3931;42.260;23.116;2022-12-15T06:09:46;59.27;;;36.73;;
7773;SDS011;3931;42.260;23.116;2022-12-15T06:12:13;35.30;;;19.83;;
7773;SDS011;3931;42.260;23.116;2022-12-15T06:14:39;34.73;;;20.73;;
7773;SDS011;3931;42.260;23.116;2022-12-15T06:17:05;36.87;;;21.97;;
7773;SDS011;3931;42.260;23.116;2022-12-15T06:19:31;34.90;;;20.97;;
7773;SDS011;3931;42.260;23.116;2022-12-15T06:21:57;36.07;;;22.40;;
7773;SDS011;3931;42.260;23.116;2022-12-15T06:24:24;32.33;;;19.87;;
7773;SDS011;3931;42.260;23.116;2022-12-15T06:26:50;27.73;;;16.43;;
7773;SDS011;3931;42.260;23.116;2022-12-15T06:29:16;19.00;;;12.67;;
7773;SDS011;3931;42.260;23.116;2022-12-15T06:31:43;19.83;;;12.73;;
7773;SDS011;3931;42.260;23.116;2022-12-15T06:34:10;16.47;;;12.33;;
7773;SDS011;3931;42.260;23.116;2022-12-15T06:36:38;19.97;;;12.77;;
7773;SDS011;3931;42.260;23.116;2022-12-15T06:39:05;15.53;;;11.40;;
7773;SDS011;3931;42.260;23.116;2022-12-15T06:41:34;20.43;;;13.20;;
7773;SDS011;3931;42.260;23.116;2022-12-15T06:44:00;37.57;;;12.90;;
7773;SDS011;3931;42.260;23.116;2022-12-15T06:46:27;19.57;;;12.90;;
7773;SDS011;3931;42.260;23.116;2022-12-15T06:48:55;18.10;;;14.10;;
7773;SDS011;3931;42.260;23.116;2022-12-15T06:51:21;20.40;;;14.60;;
7773;SDS011;3931;42.260;23.116;2022-12-15T06:53:47;22.07;;;14.80;;
7773;SDS011;3931;42.260;23.116;2022-12-15T06:56:17;24.20;;;16.30;;
7773;SDS011;3931;42.260;23.116;2022-12-15T06:58:46;39.80;;;21.60;;
7773;SDS011;3931;42.260;23.116;2022-12-15T07:01:13;34.53;;;20.60;;
7773;SDS011;3931;42.260;23.116;2022-12-15T07:03:39;39.27;;;23.77;;
7773;SDS011;3931;42.260;23.116;2022-12-15T07:06:07;60.47;;;33.00;;
7773;SDS011;3931;42.260;23.116;2022-12-15T07:08:36;52.33;;;29.20;;
7773;SDS011;3931;42.260;23.116;2022-12-15T07:11:02;52.27;;;28.33;;
7773;SDS011;3931;42.260;23.116;2022-12-15T07:13:30;54.43;;;30.63;;
7773;SDS011;3931;42.260;23.116;2022-12-15T07:15:58;63.47;;;33.93;;
7773;SDS011;3931;42.260;23.116;2022-12-15T07:18:24;43.07;;;28.13;;
7773;SDS011;3931;42.260;23.116;2022-12-15T07:20:50;49.10;;;28.20;;
7773;SDS011;3931;42.260;23.116;2022-12-15T07:23:16;33.73;;;20.83;;
7773;SDS011;3931;42.260;23.116;2022-12-15T07:25:42;29.93;;;20.40;;
7773;SDS011;3931;42.260;23.116;2022-12-15T07:28:08;23.33;;;15.70;;
7773;SDS011;3931;42.260;23.116;2022-12-15T07:30:36;28.07;;;17.10;;
7773;SDS011;3931;42.260;23.116;2022-12-15T07:33:03;29.07;;;14.90;;
7773;SDS011;3931;42.260;23.116;2022-12-15T07:35:30;23.00;;;15.57;;
7773;SDS011;3931;42.260;23.116;2022-12-15T07:37:57;23.93;;;16.70;;
7773;SDS011;3931;42.260;23.116;2022-12-15T07:40:23;47.60;;;25.33;;
7773;SDS011;3931;42.260;23.116;2022-12-15T07:42:49;203.90;;;73.27;;
7773;SDS011;3931;42.260;23.116;2022-12-15T07:45:15;139.03;;;54.30;;
7773;SDS011;3931;42.260;23.116;2022-12-15T07:47:41;120.93;;;50.83;;
7773;SDS011;3931;42.260;23.116;2022-12-15T07:50:08;67.73;;;35.53;;
7773;SDS011;3931;42.260;23.116;2022-12-15T07:52:34;28.73;;;18.17;;
7773;SDS011;3931;42.260;23.116;2022-12-15T07:55:00;43.70;;;23.70;;
7773;SDS011;3931;42.260;23.116;2022-12-15T07:57:26;51.00;;;32.30;;
7773;SDS011;3931;42.260;23.116;2022-12-15T07:59:52;32.50;;;19.83;;
7773;SDS011;3931;42.260;23.116;2022-12-15T08:02:19;32.87;;;20.33;;
7773;SDS011;3931;42.260;23.116;2022-12-15T08:04:45;37.03;;;21.37;;
7773;SDS011;3931;42.260;23.116;2022-12-15T08:07:12;53.87;;;28.43;;
7773;SDS011;3931;42.260;23.116;2022-12-15T08:09:38;58.10;;;35.60;;
7773;SDS011;3931;42.260;23.116;2022-12-15T08:12:04;49.57;;;28.90;;
7773;SDS011;3931;42.260;23.116;2022-12-15T08:14:30;50.93;;;32.17;;
7773;SDS011;3931;42.260;23.116;2022-12-15T08:16:58;47.20;;;28.37;;
7773;SDS011;3931;42.260;23.116;2022-12-15T08:19:24;37.90;;;24.57;;
7773;SDS011;3931;42.260;23.116;2022-12-15T08:21:50;33.60;;;20.73;;
7773;SDS011;3931;42.260;23.116;2022-12-15T08:24:17;36.53;;;19.17;;
7773;SDS011;3931;42.260;23.116;2022-12-15T08:26:43;38.43;;;24.40;;
7773;SDS011;3931;42.260;23.116;2022-12-15T08:29:10;41.37;;;25.87;;
7773;SDS011;3931;42.260;23.116;2022-12-15T08:31:37;38.20;;;25.10;;
7773;SDS011;3931;42.260;23.116;2022-12-15T08:34:04;50.07;;;29.30;;
7773;SDS011;3931;42.260;23.116;2022-12-15T08:36:31;44.40;;;27.87;;
7773;SDS011;3931;42.260;23.116;2022-12-15T08:38:57;44.80;;;28.17;;
7773;SDS011;3931;42.260;23.116;2022-12-15T08:41:25;59.80;;;34.13;;
7773;SDS011;3931;42.260;23.116;2022-12-15T08:43:53;44.70;;;28.80;;
7773;SDS011;3931;42.260;23.116;2022-12-15T08:46:21;45.30;;;27.50;;
7773;SDS011;3931;42.260;23.116;2022-12-15T08:48:48;37.70;;;24.37;;
7773;SDS011;3931;42.260;23.116;2022-12-15T08:51:15;36.23;;;21.70;;
7773;SDS011;3931;42.260;23.116;2022-12-15T08:53:42;36.60;;;23.13;;
7773;SDS011;3931;42.260;23.116;2022-12-15T08:56:08;46.23;;;23.53;;
7773;SDS011;3931;42.260;23.116;2022-12-15T08:58:37;43.10;;;24.37;;
7773;SDS011;3931;42.260;23.116;2022-12-15T09:01:05;50.10;;;28.63;;
7773;SDS011;3931;42.260;23.116;2022-12-15T09:03:32;46.67;;;27.77;;
7773;SDS011;3931;42.260;23.116;2022-12-15T09:06:00;48.57;;;30.07;;
7773;SDS011;3931;42.260;23.116;2022-12-15T09:08:26;44.00;;;27.60;;
7773;SDS011;3931;42.260;23.116;2022-12-15T09:10:55;41.50;;;27.03;;
7773;SDS011;3931;42.260;23.116;2022-12-15T09:13:22;43.70;;;27.27;;
7773;SDS011;3931;42.260;23.116;2022-12-15T09:15:54;45.93;;;27.70;;
7773;SDS011;3931;42.260;23.116;2022-12-15T09:18:21;36.27;;;20.60;;
7773;SDS011;3931;42.260;23.116;2022-12-15T09:20:47;39.20;;;23.10;;
7773;SDS011;3931;42.260;23.116;2022-12-15T09:23:13;41.60;;;24.30;;
7773;SDS011;3931;42.260;23.116;2022-12-15T09:25:39;42.27;;;25.67;;
7773;SDS011;3931;42.260;23.116;2022-12-15T09:28:05;43.37;;;25.10;;
7773;SDS011;3931;42.260;23.116;2022-12-15T09:30:31;43.57;;;26.63;;
7773;SDS011;3931;42.260;23.116;2022-12-15T09:32:58;23.07;;;14.80;;
7773;SDS011;3931;42.260;23.116;2022-12-15T09:35:25;23.03;;;15.00;;
7773;SDS011;3931;42.260;23.116;2022-12-15T09:37:51;30.57;;;18.40;;
7773;SDS011;3931;42.260;23.116;2022-12-15T09:40:17;40.57;;;22.33;;
7773;SDS011;3931;42.260;23.116;2022-12-15T09:42:43;38.90;;;20.97;;
7773;SDS011;3931;42.260;23.116;2022-12-15T09:45:16;29.37;;;16.73;;
7773;SDS011;3931;42.260;23.116;2022-12-15T09:47:46;21.10;;;13.90;;
7773;SDS011;3931;42.260;23.116;2022-12-15T09:50:18;27.03;;;16.33;;
7773;SDS011;3931;42.260;23.116;2022-12-15T09:52:51;33.50;;;21.03;;
7773;SDS011;3931;42.260;23.116;2022-12-15T09:55:21;30.27;;;17.50;;
7773;SDS011;3931;42.260;23.116;2022-12-15T09:57:50;26.73;;;15.90;;
7773;SDS011;3931;42.260;23.116;2022-12-15T10:00:19;24.57;;;15.37;;
7773;SDS011;3931;42.260;23.116;2022-12-15T10:05:57;30.23;;;18.60;;
7773;SDS011;3931;42.260;23.116;2022-12-15T10:08:30;35.13;;;19.83;;
7773;SDS011;3931;42.260;23.116;2022-12-15T10:10:59;32.67;;;21.20;;
7773;SDS011;3931;42.260;23.116;2022-12-15T10:13:29;135.37;;;55.00;;
7773;SDS011;3931;42.260;23.116;2022-12-15T10:16:03;57.13;;;28.03;;
7773;SDS011;3931;42.260;23.116;2022-12-15T10:18:39;76.07;;;40.97;;
7773;SDS011;3931;42.260;23.116;2022-12-15T10:21:13;44.50;;;26.97;;
7773;SDS011;3931;42.260;23.116;2022-12-15T10:23:40;32.57;;;18.67;;
7773;SDS011;3931;42.260;23.116;2022-12-15T10:26:13;28.60;;;15.90;;
7773;SDS011;3931;42.260;23.116;2022-12-15T10:28:47;25.90;;;14.93;;
7773;SDS011;3931;42.260;23.116;2022-12-15T10:31:28;28.03;;;15.30;;
7773;SDS011;3931;42.260;23.116;2022-12-15T10:34:01;31.60;;;15.80;;
7773;SDS011;3931;42.260;23.116;2022-12-15T10:36:35;28.67;;;15.37;;
7773;SDS011;3931;42.260;23.116;2022-12-15T10:39:01;26.00;;;14.73;;
7773;SDS011;3931;42.260;23.116;2022-12-15T10:41:29;32.53;;;17.80;;
7773;SDS011;3931;42.260;23.116;2022-12-15T10:43:57;26.30;;;14.43;;
7773;SDS011;3931;42.260;23.116;2022-12-15T10:46:24;26.27;;;14.40;;
7773;SDS011;3931;42.260;23.116;2022-12-15T10:48:51;29.40;;;15.73;;
7773;SDS011;3931;42.260;23.116;2022-12-15T10:51:21;19.97;;;13.33;;
7773;SDS011;3931;42.260;23.116;2022-12-15T10:53:52;20.73;;;12.30;;
7773;SDS011;3931;42.260;23.116;2022-12-15T10:56:21;18.80;;;10.17;;
7773;SDS011;3931;42.260;23.116;2022-12-15T10:58:49;15.80;;;9.40;;
7773;SDS011;3931;42.260;23.116;2022-12-15T11:01:18;17.17;;;9.90;;
7773;SDS011;3931;42.260;23.116;2022-12-15T11:03:45;18.70;;;9.67;;
7773;SDS011;3931;42.260;23.116;2022-12-15T11:06:16;16.40;;;10.97;;
7773;SDS011;3931;42.260;23.116;2022-12-15T11:08:44;11.10;;;7.27;;
7773;SDS011;3931;42.260;23.116;2022-12-15T11:11:28;12.70;;;8.90;;
7773;SDS011;3931;42.260;23.116;2022-12-15T11:14:16;22.57;;;11.00;;
7773;SDS011;3931;42.260;23.116;2022-12-15T11:16:48;14.10;;;8.33;;
7773;SDS011;3931;42.260;23.116;2022-12-15T11:19:29;25.00;;;10.97;;
7773;SDS011;3931;42.260;23.116;2022-12-15T11:22:02;15.70;;;9.30;;
7773;SDS011;3931;42.260;23.116;2022-12-15T11:24:36;16.67;;;9.50;;
7773;SDS011;3931;42.260;23.116;2022-12-15T11:27:11;11.57;;;7.60;;
7773;SDS011;3931;42.260;23.116;2022-12-15T11:29:43;20.90;;;9.13;;
7773;SDS011;3931;42.260;23.116;2022-12-15T11:32:20;16.70;;;8.60;;
7773;SDS011;3931;42.260;23.116;2022-12-15T11:34:49;25.93;;;14.50;;
7773;SDS011;3931;42.260;23.116;2022-12-15T11:37:25;31.50;;;19.10;;
7773;SDS011;3931;42.260;23.116;2022-12-15T11:43:07;32.77;;;18.70;;
7773;SDS011;3931;42.260;23.116;2022-12-15T11:45:49;23.43;;;15.80;;
7773;SDS011;3931;42.260;23.116;2022-12-15T11:48:26;30.43;;;17.67;;
7773;SDS011;3931;42.260;23.116;2022-12-15T11:51:00;25.37;;;17.20;;
7773;SDS011;3931;42.260;23.116;2022-12-15T11:53:44;36.40;;;22.23;;
7773;SDS011;3931;42.260;23.116;2022-12-15T11:56:24;43.00;;;22.67;;
7773;SDS011;3931;42.260;23.116;2022-12-15T12:02:21;58.97;;;28.93;;
7773;SDS011;3931;42.260;23.116;2022-12-15T12:05:01;170.40;;;66.70;;
7773;SDS011;3931;42.260;23.116;2022-12-15T12:07:42;183.50;;;58.33;;
7773;SDS011;3931;42.260;23.116;2022-12-15T12:10:14;297.40;;;83.63;;
7773;SDS011;3931;42.260;23.116;2022-12-15T12:12:51;457.37;;;146.00;;
7773;SDS011;3931;42.260;23.116;2022-12-15T12:15:25;228.83;;;75.83;;
7773;SDS011;3931;42.260;23.116;2022-12-15T12:17:59;43.23;;;21.93;;
7773;SDS011;3931;42.260;23.116;2022-12-15T12:20:34;27.30;;;14.87;;
7773;SDS011;3931;42.260;23.116;2022-12-15T12:23:08;26.37;;;14.17;;
7773;SDS011;3931;42.260;23.116;2022-12-15T12:25:43;18.70;;;11.70;;
7773;SDS011;3931;42.260;23.116;2022-12-15T12:28:14;18.83;;;12.30;;
7773;SDS011;3931;42.260;23.116;2022-12-15T12:30:46;19.73;;;11.97;;
7773;SDS011;3931;42.260;23.116;2022-12-15T12:33:16;20.23;;;12.63;;
7773;SDS011;3931;42.260;23.116;2022-12-15T12:35:53;23.30;;;13.30;;
7773;SDS011;3931;42.260;23.116;2022-12-15T12:38:23;21.17;;;12.20;;
7773;SDS011;3931;42.260;23.116;2022-12-15T12:40:55;20.80;;;12.60;;
7773;SDS011;3931;42.260;23.116;2022-12-15T12:43:30;33.63;;;20.20;;
7773;SDS011;3931;42.260;23.116;2022-12-15T12:45:58;54.53;;;25.77;;
7773;SDS011;3931;42.260;23.116;2022-12-15T12:48:29;43.87;;;21.53;;
7773;SDS011;3931;42.260;23.116;2022-12-15T12:51:09;35.37;;;16.10;;
7773;SDS011;3931;42.260;23.116;2022-12-15T12:53:40;41.13;;;19.73;;
7773;SDS011;3931;42.260;23.116;2022-12-15T12:56:07;39.30;;;20.30;;
7773;SDS011;3931;42.260;23.116;2022-12-15T12:58:54;21.10;;;13.83;;
7773;SDS011;3931;42.260;23.116;2022-12-15T13:01:24;48.07;;;24.50;;
7773;SDS011;3931;42.260;23.116;2022-12-15T13:04:04;89.40;;;38.17;;
7773;SDS011;3931;42.260;23.116;2022-12-15T13:09:35;24.50;;;14.63;;
7773;SDS011;3931;42.260;23.116;2022-12-15T13:12:04;26.80;;;15.63;;
7773;SDS011;3931;42.260;23.116;2022-12-15T13:14:51;23.90;;;14.90;;
7773;SDS011;3931;42.260;23.116;2022-12-15T13:17:28;14.57;;;10.73;;
7773;SDS011;3931;42.260;23.116;2022-12-15T13:22:53;20.27;;;13.57;;
7773;SDS011;3931;42.260;23.116;2022-12-15T13:25:39;33.83;;;16.27;;
7773;SDS011;3931;42.260;23.116;2022-12-15T13:31:10;22.10;;;11.63;;
7773;SDS011;3931;42.260;23.116;2022-12-15T13:33:49;23.43;;;16.10;;
7773;SDS011;3931;42.260;23.116;2022-12-15T13:48:04;43.33;;;19.97;;
7773;SDS011;3931;42.260;23.116;2022-12-15T13:50:43;37.07;;;17.70;;
7773;SDS011;3931;42.260;23.116;2022-12-15T13:53:16;24.93;;;14.40;;
7773;SDS011;3931;42.260;23.116;2022-12-15T13:55:50;19.03;;;14.27;;
7773;SDS011;3931;42.260;23.116;2022-12-15T13:58:19;43.07;;;21.50;;
7773;SDS011;3931;42.260;23.116;2022-12-15T14:00:50;54.40;;;27.00;;
7773;SDS011;3931;42.260;23.116;2022-12-15T14:03:17;42.50;;;24.10;;
7773;SDS011;3931;42.260;23.116;2022-12-15T14:05:48;30.40;;;18.43;;
7773;SDS011;3931;42.260;23.116;2022-12-15T14:08:17;42.10;;;22.00;;
7773;SDS011;3931;42.260;23.116;2022-12-15T14:10:44;36.60;;;23.23;;
7773;SDS011;3931;42.260;23.116;2022-12-15T14:13:16;35.50;;;19.37;;
7773;SDS011;3931;42.260;23.116;2022-12-15T14:15:46;59.50;;;32.00;;
7773;SDS011;3931;42.260;23.116;2022-12-15T14:18:27;47.87;;;29.57;;
7773;SDS011;3931;42.260;23.116;2022-12-15T14:20:55;30.50;;;19.10;;
7773;SDS011;3931;42.260;23.116;2022-12-15T14:23:23;30.27;;;19.40;;
7773;SDS011;3931;42.260;23.116;2022-12-15T14:25:51;39.13;;;24.30;;
7773;SDS011;3931;42.260;23.116;2022-12-15T14:28:25;37.87;;;22.00;;
7773;SDS011;3931;42.260;23.116;2022-12-15T14:30:55;38.40;;;22.40;;
7773;SDS011;3931;42.260;23.116;2022-12-15T14:33:22;40.20;;;23.23;;
7773;SDS011;3931;42.260;23.116;2022-12-15T14:35:49;37.30;;;21.77;;
7773;SDS011;3931;42.260;23.116;2022-12-15T14:38:19;35.67;;;22.70;;
7773;SDS011;3931;42.260;23.116;2022-12-15T14:40:51;31.00;;;19.80;;
7773;SDS011;3931;42.260;23.116;2022-12-15T14:43:21;30.20;;;18.00;;
7773;SDS011;3931;42.260;23.116;2022-12-15T14:45:51;54.70;;;30.17;;
7773;SDS011;3931;42.260;23.116;2022-12-15T14:48:22;39.10;;;21.90;;
7773;SDS011;3931;42.260;23.116;2022-12-15T14:50:53;39.27;;;18.97;;
7773;SDS011;3931;42.260;23.116;2022-12-15T14:53:29;41.97;;;24.07;;
7773;SDS011;3931;42.260;23.116;2022-12-15T14:55:57;43.00;;;22.07;;
7773;SDS011;3931;42.260;23.116;2022-12-15T14:58:38;53.60;;;27.37;;
7773;SDS011;3931;42.260;23.116;2022-12-15T15:01:18;51.10;;;25.33;;
7773;SDS011;3931;42.260;23.116;2022-12-15T15:03:54;52.50;;;29.40;;
7773;SDS011;3931;42.260;23.116;2022-12-15T15:06:21;35.73;;;21.13;;
7773;SDS011;3931;42.260;23.116;2022-12-15T15:08:55;39.20;;;20.00;;
7773;SDS011;3931;42.260;23.116;2022-12-15T15:11:22;29.63;;;18.10;;
7773;SDS011;3931;42.260;23.116;2022-12-15T15:13:53;36.27;;;20.60;;
7773;SDS011;3931;42.260;23.116;2022-12-15T15:16:21;57.73;;;26.40;;
7773;SDS011;3931;42.260;23.116;2022-12-15T15:18:48;97.00;;;46.93;;
7773;SDS011;3931;42.260;23.116;2022-12-15T15:21:16;91.07;;;44.60;;
7773;SDS011;3931;42.260;23.116;2022-12-15T15:23:56;53.70;;;30.53;;
7773;SDS011;3931;42.260;23.116;2022-12-15T15:26:24;76.20;;;42.97;;
7773;SDS011;3931;42.260;23.116;2022-12-15T15:28:51;90.53;;;51.77;;
7773;SDS011;3931;42.260;23.116;2022-12-15T15:31:27;89.07;;;45.90;;
7773;SDS011;3931;42.260;23.116;2022-12-15T15:33:56;114.80;;;53.53;;
7773;SDS011;3931;42.260;23.116;2022-12-15T15:36:23;86.27;;;45.80;;
7773;SDS011;3931;42.260;23.116;2022-12-15T15:38:54;79.47;;;42.17;;